createdAt,value
2023-02-18T00:01:12.281Z,14.68
2023-02-18T00:06:16.549Z,15.55
2023-02-18T00:11:18.941Z,16.48
2023-02-18T00:16:20.454Z,11.52
2023-02-18T00:21:21.911Z,13.27
2023-02-18T00:26:24.467Z,10.38
2023-02-18T00:31:30.871Z,15.07
2023-02-18T00:36:32.569Z,14.18
2023-02-18T00:41:34.588Z,10.18
2023-02-18T00:46:36.378Z,12.50
2023-02-18T00:51:37.924Z,12.02
2023-02-18T00:56:39.288Z,13.98
2023-02-18T01:01:40.863Z,17.15
2023-02-18T01:06:42.307Z,16.25
2023-02-18T01:11:43.794Z,19.58
2023-02-18T01:16:45.208Z,17.83
2023-02-18T01:21:46.711Z,16.55
2023-02-18T01:26:48.241Z,17.83
2023-02-18T01:31:49.893Z,19.17
2023-02-18T01:36:51.454Z,20.75
2023-02-18T01:41:52.836Z,18.50
2023-02-18T01:46:54.359Z,19.33
2023-02-18T01:52:25.066Z,25.27
2023-02-18T01:57:31.265Z,25.75
2023-02-18T02:02:33.692Z,26.80
2023-02-18T02:07:35.178Z,24.98
2023-02-18T02:12:43.531Z,31.08
2023-02-18T02:17:57.266Z,31.38
2023-02-18T02:23:17.555Z,30.05
2023-02-18T02:28:25.038Z,33.03
2023-02-18T02:33:45.205Z,31.52
2023-02-18T02:43:50.852Z,42.05
2023-02-18T02:48:59.746Z,39.30
2023-02-18T02:54:12.231Z,38.90
2023-02-18T02:59:15.172Z,38.25
2023-02-18T03:04:34.790Z,40.72
2023-02-18T03:10:00.565Z,47.17
2023-02-18T03:15:05.237Z,52.35
2023-02-18T03:20:12.473Z,52.75
2023-02-18T03:25:14.906Z,48.90
2023-02-18T03:30:18.144Z,57.33
2023-02-18T03:35:20.053Z,60.03
2023-02-18T03:40:21.521Z,61.78
2023-02-18T03:45:23.033Z,55.13
2023-02-18T03:50:24.466Z,68.97
2023-02-18T03:55:25.887Z,73.60
2023-02-18T04:00:27.284Z,68.00
2023-02-18T04:05:28.737Z,81.65
2023-02-18T04:10:30.125Z,76.97
2023-02-18T04:15:31.749Z,63.00
2023-02-18T04:20:33.145Z,53.25
2023-02-18T04:25:34.920Z,40.03
2023-02-18T04:30:36.437Z,36.28
2023-02-18T04:35:41.898Z,36.95
2023-02-18T04:40:43.466Z,38.42
2023-02-18T04:45:44.888Z,37.85
2023-02-18T04:50:46.380Z,39.70
2023-02-18T04:55:51.790Z,32.72
2023-02-18T05:00:54.115Z,27.35
2023-02-18T05:05:55.594Z,25.67
2023-02-18T05:10:57.095Z,26.77
2023-02-18T05:15:58.570Z,28.35
2023-02-18T05:21:00.469Z,30.05
2023-02-18T05:26:01.964Z,35.15
2023-02-18T05:31:03.999Z,28.02
2023-02-18T05:36:05.707Z,30.10
2023-02-18T05:41:07.141Z,29.90
2023-02-18T05:46:08.885Z,36.53
2023-02-18T05:51:10.537Z,29.08
2023-02-18T05:56:11.962Z,27.15
2023-02-18T06:01:13.397Z,27.40
2023-02-18T06:06:14.950Z,24.92
2023-02-18T06:11:16.528Z,28.88
2023-02-18T06:16:17.986Z,25.65
2023-02-18T06:21:19.666Z,24.58
2023-02-18T06:26:21.170Z,25.42
2023-02-18T06:31:22.657Z,22.95
2023-02-18T06:36:24.150Z,22.95
2023-02-18T06:41:25.601Z,21.65
2023-02-18T06:46:27.018Z,20.58
2023-02-18T06:51:28.404Z,21.08
2023-02-18T06:56:31.049Z,20.20
2023-02-18T07:01:32.695Z,20.00
2023-02-18T07:06:34.153Z,26.17
2023-02-18T07:11:35.620Z,26.10
2023-02-18T07:16:37.056Z,25.20
2023-02-18T07:21:38.451Z,27.13
2023-02-18T07:26:39.879Z,25.48
2023-02-18T07:31:41.577Z,22.77
2023-02-18T07:36:43.030Z,18.30
2023-02-18T07:41:44.422Z,20.40
2023-02-18T07:46:47.474Z,23.13
2023-02-18T07:51:50.533Z,20.67
2023-02-18T07:56:52.264Z,19.85
2023-02-18T08:01:53.824Z,22.02
2023-02-18T08:06:55.276Z,22.40
2023-02-18T08:11:57.915Z,23.77
2023-02-18T08:16:59.420Z,21.30
2023-02-18T08:22:04.216Z,22.38
2023-02-18T08:27:05.655Z,18.25
2023-02-18T08:32:07.105Z,19.80
2023-02-18T08:37:08.602Z,18.23
2023-02-18T08:42:10.130Z,14.00
2023-02-18T08:48:18.238Z,17.20
2023-02-18T08:52:33.001Z,13.25
2023-02-18T08:57:34.479Z,22.00
2023-02-18T09:02:35.873Z,16.55
2023-02-18T09:07:37.796Z,20.55
2023-02-18T09:12:39.218Z,15.23
2023-02-18T09:17:40.616Z,20.73
2023-02-18T09:22:42.146Z,20.27
2023-02-18T09:27:43.577Z,16.42
2023-02-18T09:32:44.974Z,21.08
2023-02-18T09:37:46.352Z,17.33
2023-02-18T09:42:47.752Z,15.02
2023-02-18T09:47:50.682Z,19.73
2023-02-18T09:52:52.322Z,21.48
2023-02-18T09:57:55.047Z,19.55
2023-02-18T10:03:02.600Z,25.70
2023-02-18T10:08:06.740Z,21.40
2023-02-18T10:13:13.266Z,22.08
2023-02-18T10:18:19.785Z,25.80
2023-02-18T10:23:21.340Z,20.83
2023-02-18T10:28:23.786Z,26.38
2023-02-18T10:33:35.987Z,21.75
2023-02-18T10:38:43.213Z,18.02
2023-02-18T10:43:56.888Z,22.00
2023-02-18T10:49:31.892Z,20.17
2023-02-18T10:54:48.385Z,19.90
2023-02-18T11:00:01.239Z,19.98
2023-02-18T11:05:07.101Z,26.42
2023-02-18T11:10:19.246Z,13.60
2023-02-18T11:15:23.596Z,14.32
2023-02-18T11:20:29.716Z,28.95
2023-02-18T11:25:33.609Z,12.27
2023-02-18T11:30:53.834Z,16.85
2023-02-18T11:35:56.605Z,19.35
2023-02-18T11:41:03.860Z,15.95
2023-02-18T11:46:09.724Z,19.50
2023-02-18T11:51:31.396Z,14.52
2023-02-18T11:56:35.379Z,15.93
2023-02-18T12:01:47.645Z,16.88
2023-02-18T12:06:52.081Z,17.05
2023-02-18T12:11:56.909Z,14.02
2023-02-18T12:17:25.930Z,12.85
2023-02-18T12:22:30.436Z,20.55
2023-02-18T12:28:01.095Z,22.48
2023-02-18T12:33:15.377Z,10.98
2023-02-18T12:38:26.480Z,13.95
2023-02-18T12:43:27.871Z,15.13
2023-02-18T12:48:35.486Z,15.40
2023-02-18T12:53:52.361Z,16.85
2023-02-18T12:59:12.470Z,13.93
2023-02-18T13:09:25.296Z,16.83
2023-02-18T13:14:29.680Z,12.77
2023-02-18T13:19:43.987Z,11.10
2023-02-18T13:24:49.562Z,17.42
2023-02-18T13:30:08.680Z,12.80
2023-02-18T13:35:10.104Z,15.45
2023-02-18T13:40:37.949Z,14.60
2023-02-18T13:45:39.689Z,10.88
2023-02-18T13:50:43.101Z,17.60
2023-02-18T13:55:52.942Z,11.38
2023-02-18T14:00:57.214Z,12.35
2023-02-18T14:05:58.619Z,13.98
2023-02-18T14:11:12.206Z,13.50
2023-02-18T14:16:13.853Z,9.50
2023-02-18T14:21:15.259Z,14.18
2023-02-18T14:26:19.341Z,18.70
2023-02-18T14:31:30.284Z,13.32
2023-02-18T14:36:58.285Z,18.08
2023-02-18T14:41:59.645Z,14.82
2023-02-18T14:47:03.919Z,14.57
2023-02-18T14:52:07.173Z,12.80
2023-02-18T14:57:13.112Z,15.30
2023-02-18T15:02:17.501Z,11.50
2023-02-18T15:07:22.564Z,13.82
2023-02-18T15:12:25.870Z,15.50
2023-02-18T15:17:27.742Z,14.18
2023-02-18T15:22:31.987Z,10.88
2023-02-18T15:27:38.975Z,15.05
2023-02-18T15:32:40.474Z,12.50
2023-02-18T15:37:44.647Z,18.05
2023-02-18T15:42:47.548Z,17.13
2023-02-18T15:47:51.044Z,13.13
2023-02-18T15:52:53.480Z,15.68
2023-02-18T15:57:55.010Z,13.50
2023-02-18T16:03:02.230Z,15.65
2023-02-18T16:08:12.700Z,15.60
2023-02-18T16:13:15.987Z,15.85
2023-02-18T16:18:29.309Z,18.35
2023-02-18T16:23:33.432Z,19.98
2023-02-18T16:28:35.330Z,16.63
2023-02-18T16:33:36.823Z,15.43
2023-02-18T16:38:38.477Z,17.67
2023-02-18T16:43:40.058Z,15.70
2023-02-18T16:48:43.165Z,19.00
2023-02-18T16:53:45.036Z,16.48
2023-02-18T16:58:46.464Z,17.77
2023-02-18T17:03:48.931Z,17.27
2023-02-18T17:08:50.537Z,14.45
2023-02-18T17:13:52.692Z,16.17
2023-02-18T17:18:54.121Z,14.75
2023-02-18T17:23:55.704Z,18.92
2023-02-18T17:28:58.128Z,19.63
2023-02-18T17:34:00.979Z,13.73
2023-02-18T17:39:05.880Z,20.17
2023-02-18T17:44:15.171Z,16.05
2023-02-18T17:49:16.912Z,17.27
2023-02-18T17:54:20.016Z,14.70
2023-02-18T17:59:21.993Z,19.25
2023-02-18T18:04:23.420Z,16.60
2023-02-18T18:09:25.637Z,19.45
2023-02-18T18:14:27.751Z,14.32
2023-02-18T18:19:30.299Z,14.63
2023-02-18T18:24:31.749Z,15.18
2023-02-18T18:29:33.646Z,19.73
2023-02-18T18:34:35.070Z,16.60
2023-02-18T18:39:36.545Z,20.13
2023-02-18T18:44:38.097Z,16.73
2023-02-18T18:49:39.529Z,14.15
2023-02-18T18:54:41.465Z,18.17
2023-02-18T18:59:42.915Z,19.05
2023-02-18T19:04:44.361Z,18.00
2023-02-18T19:09:45.811Z,20.83
2023-02-18T19:14:47.248Z,17.38
2023-02-18T19:19:48.692Z,16.60
2023-02-18T19:24:50.106Z,29.20
2023-02-18T19:29:54.387Z,27.60
2023-02-18T19:34:55.845Z,28.98
2023-02-18T19:39:57.251Z,27.67
2023-02-18T19:44:59.014Z,26.20
2023-02-18T19:50:01.312Z,25.80
2023-02-18T19:55:02.713Z,30.27
2023-02-18T20:00:05.202Z,25.58
2023-02-18T20:05:07.499Z,27.23
2023-02-18T20:10:11.298Z,21.80
2023-02-18T20:15:12.765Z,23.10
2023-02-18T20:20:14.298Z,19.83
2023-02-18T20:25:16.953Z,27.65
2023-02-18T20:30:18.439Z,21.58
2023-02-18T20:35:19.958Z,21.90
2023-02-18T20:40:21.443Z,30.58
2023-02-18T20:45:22.852Z,23.65
2023-02-18T20:50:24.457Z,29.05
2023-02-18T20:55:25.974Z,22.20
2023-02-18T21:00:27.406Z,27.00
2023-02-18T21:05:28.934Z,24.42
2023-02-18T21:10:30.420Z,23.92
2023-02-18T21:15:31.884Z,24.33
2023-02-18T21:20:33.335Z,28.48
2023-02-18T21:25:35.776Z,24.02
2023-02-18T21:30:38.474Z,19.45
2023-02-18T21:35:40.888Z,21.65
2023-02-18T21:40:43.050Z,25.20
2023-02-18T21:45:44.573Z,33.85
2023-02-18T21:50:46.027Z,25.00
2023-02-18T21:55:58.580Z,32.53
2023-02-18T22:01:03.690Z,34.50
2023-02-18T22:06:05.215Z,30.92
2023-02-18T22:11:06.756Z,30.40
2023-02-18T22:16:08.248Z,28.67
2023-02-18T22:21:10.109Z,29.33
2023-02-18T22:26:12.033Z,30.73
2023-02-18T22:31:13.891Z,30.15
2023-02-18T22:36:15.589Z,33.17
2023-02-18T22:41:19.007Z,30.38
2023-02-18T22:46:20.517Z,33.90
2023-02-18T22:51:26.247Z,31.50
2023-02-18T22:56:28.454Z,32.05
2023-02-18T23:01:31.622Z,26.02
2023-02-18T23:06:33.901Z,25.38
2023-02-18T23:11:35.705Z,25.40
2023-02-18T23:16:57.133Z,20.73
2023-02-18T23:21:58.647Z,24.48
2023-02-18T23:27:00.290Z,19.27
2023-02-18T23:32:02.027Z,21.83
2023-02-18T23:37:03.761Z,20.08
2023-02-18T23:42:05.420Z,18.13
2023-02-18T23:47:08.449Z,13.93
2023-02-18T23:52:09.994Z,20.13
2023-02-18T23:57:11.411Z,15.23
